sensor_id;sensor_type;location;lat;lon;timestamp;pressure;altitude;pressure_sealevel;temperature;humidity
42067;BME280;27734;47.028;28.820;2023-03-14T00:00:47;100723.23;;;4.56;52.99
42067;BME280;27734;47.028;28.820;2023-03-14T00:03:23;100729.25;;;4.55;52.91
42067;BME280;27734;47.028;28.820;2023-03-14T00:05:55;100730.83;;;4.53;52.56
42067;BME280;27734;47.028;28.820;2023-03-14T00:08:26;100726.45;;;4.52;52.56
42067;BME280;27734;47.028;28.820;2023-03-14T00:10:57;100732.45;;;4.51;52.14
42067;BME280;27734;47.028;28.820;2023-03-14T00:13:28;100739.36;;;4.50;52.19
42067;BME280;27734;47.028;28.820;2023-03-14T00:16:05;100740.94;;;4.48;52.00
42067;BME280;27734;47.028;28.820;2023-03-14T00:18:36;100747.74;;;4.46;52.21
42067;BME280;27734;47.028;28.820;2023-03-14T00:21:09;100748.63;;;4.47;51.58
42067;BME280;27734;47.028;28.820;2023-03-14T00:23:42;100741.56;;;4.44;53.40
42067;BME280;27734;47.028;28.820;2023-03-14T00:26:16;100742.25;;;4.42;52.50
42067;BME280;27734;47.028;28.820;2023-03-14T00:28:50;100741.27;;;4.40;51.95
42067;BME280;27734;47.028;28.820;2023-03-14T00:31:22;100728.17;;;4.38;52.53
42067;BME280;27734;47.028;28.820;2023-03-14T00:33:54;100722.78;;;4.35;52.21
42067;BME280;27734;47.028;28.820;2023-03-14T00:36:26;100724.36;;;4.33;52.02
42067;BME280;27734;47.028;28.820;2023-03-14T00:38:57;100722.59;;;4.32;52.20
42067;BME280;27734;47.028;28.820;2023-03-14T00:41:28;100718.97;;;4.30;52.60
42067;BME280;27734;47.028;28.820;2023-03-14T00:43:59;100717.09;;;4.27;52.62
42067;BME280;27734;47.028;28.820;2023-03-14T00:46:31;100708.28;;;4.25;52.37
42067;BME280;27734;47.028;28.820;2023-03-14T00:49:02;100708.18;;;4.24;52.76
42067;BME280;27734;47.028;28.820;2023-03-14T00:51:33;100700.39;;;4.24;53.02
42067;BME280;27734;47.028;28.820;2023-03-14T00:54:05;100705.48;;;4.22;52.75
42067;BME280;27734;47.028;28.820;2023-03-14T00:56:36;100700.22;;;4.21;53.00
42067;BME280;27734;47.028;28.820;2023-03-14T00:59:07;100692.33;;;4.19;52.79
42067;BME280;27734;47.028;28.820;2023-03-14T01:01:39;100691.41;;;4.19;52.43
42067;BME280;27734;47.028;28.820;2023-03-14T01:04:11;100695.62;;;4.17;52.77
42067;BME280;27734;47.028;28.820;2023-03-14T01:06:43;100696.41;;;4.16;52.96
42067;BME280;27734;47.028;28.820;2023-03-14T01:09:14;100686.84;;;4.14;52.67
42067;BME280;27734;47.028;28.820;2023-03-14T01:11:48;100682.33;;;4.12;53.03
42067;BME280;27734;47.028;28.820;2023-03-14T01:14:20;100685.72;;;4.11;53.15
42067;BME280;27734;47.028;28.820;2023-03-14T01:16:52;100685.63;;;4.09;53.14
42067;BME280;27734;47.028;28.820;2023-03-14T01:19:23;100675.13;;;4.08;52.93
42067;BME280;27734;47.028;28.820;2023-03-14T01:21:54;100667.34;;;4.08;53.10
42067;BME280;27734;47.028;28.820;2023-03-14T01:24:26;100669.84;;;4.06;54.33
42067;BME280;27734;47.028;28.820;2023-03-14T01:26:57;100664.55;;;4.05;53.68
42067;BME280;27734;47.028;28.820;2023-03-14T01:29:28;100651.47;;;4.03;53.29
42067;BME280;27734;47.028;28.820;2023-03-14T01:32:00;100663.56;;;4.03;54.12
42067;BME280;27734;47.028;28.820;2023-03-14T01:34:31;100653.97;;;4.02;53.56
42067;BME280;27734;47.028;28.820;2023-03-14T01:37:02;100654.78;;;4.01;53.78
42067;BME280;27734;47.028;28.820;2023-03-14T01:39:34;100658.17;;;4.00;53.39
42067;BME280;27734;47.028;28.820;2023-03-14T01:42:06;100649.39;;;3.98;53.95
42067;BME280;27734;47.028;28.820;2023-03-14T01:44:52;100645.09;;;3.98;54.17
42067;BME280;27734;47.028;28.820;2023-03-14T01:47:24;100642.39;;;3.96;54.35
42067;BME280;27734;47.028;28.820;2023-03-14T01:49:59;100650.97;;;3.95;54.73
42067;BME280;27734;47.028;28.820;2023-03-14T01:52:34;100651.80;;;3.94;54.07
42067;BME280;27734;47.028;28.820;2023-03-14T01:55:12;100648.27;;;3.94;53.90
42067;BME280;27734;47.028;28.820;2023-03-14T01:57:45;100649.00;;;3.91;53.35
42067;BME280;27734;47.028;28.820;2023-03-14T02:00:20;100642.09;;;3.92;53.99
42067;BME280;27734;47.028;28.820;2023-03-14T02:02:55;100630.83;;;3.91;54.29
42067;BME280;27734;47.028;28.820;2023-03-14T02:05:29;100629.02;;;3.90;54.55
42067;BME280;27734;47.028;28.820;2023-03-14T02:08:08;100631.61;;;3.90;54.20
42067;BME280;27734;47.028;28.820;2023-03-14T02:10:49;100621.13;;;3.89;54.28
42067;BME280;27734;47.028;28.820;2023-03-14T02:13:25;100609.03;;;3.89;54.89
42067;BME280;27734;47.028;28.820;2023-03-14T02:16:29;100616.03;;;3.90;54.21
42067;BME280;27734;47.028;28.820;2023-03-14T02:19:28;100613.44;;;3.90;54.02
42067;BME280;27734;47.028;28.820;2023-03-14T02:22:15;100619.42;;;3.89;54.69
42067;BME280;27734;47.028;28.820;2023-03-14T02:24:59;100624.52;;;3.88;54.87
42067;BME280;27734;47.028;28.820;2023-03-14T02:27:34;100619.13;;;3.85;53.50
42067;BME280;27734;47.028;28.820;2023-03-14T02:30:08;100612.26;;;3.85;54.48
42067;BME280;27734;47.028;28.820;2023-03-14T02:32:45;100614.75;;;3.84;53.98
42067;BME280;27734;47.028;28.820;2023-03-14T02:35:20;100617.25;;;3.82;54.68
42067;BME280;27734;47.028;28.820;2023-03-14T02:37:55;100616.33;;;3.82;53.76
42067;BME280;27734;47.028;28.820;2023-03-14T02:40:29;100616.23;;;3.80;54.25
42067;BME280;27734;47.028;28.820;2023-03-14T02:43:00;100620.53;;;3.80;54.66
42067;BME280;27734;47.028;28.820;2023-03-14T02:45:42;100622.24;;;3.79;54.62
42067;BME280;27734;47.028;28.820;2023-03-14T02:48:18;100627.44;;;3.79;54.13
42067;BME280;27734;47.028;28.820;2023-03-14T02:50:52;100630.82;;;3.78;54.09
42067;BME280;27734;47.028;28.820;2023-03-14T02:53:27;100636.01;;;3.78;54.21
42067;BME280;27734;47.028;28.820;2023-03-14T02:56:00;100640.41;;;3.79;54.27
42067;BME280;27734;47.028;28.820;2023-03-14T02:58:32;100636.89;;;3.78;53.90
42067;BME280;27734;47.028;28.820;2023-03-14T03:01:12;100628.22;;;3.78;54.53
42067;BME280;27734;47.028;28.820;2023-03-14T03:03:43;100630.03;;;3.79;54.36
42067;BME280;27734;47.028;28.820;2023-03-14T03:06:16;100636.01;;;3.78;53.87
42067;BME280;27734;47.028;28.820;2023-03-14T03:08:47;100637.81;;;3.79;53.55
42067;BME280;27734;47.028;28.820;2023-03-14T03:11:19;100637.81;;;3.79;53.36
42067;BME280;27734;47.028;28.820;2023-03-14T03:13:51;100638.80;;;3.81;53.65
42067;BME280;27734;47.028;28.820;2023-03-14T03:16:22;100640.61;;;3.82;53.88
42067;BME280;27734;47.028;28.820;2023-03-14T03:18:53;100646.80;;;3.84;53.01
42067;BME280;27734;47.028;28.820;2023-03-14T03:21:25;100639.10;;;3.86;53.09
42067;BME280;27734;47.028;28.820;2023-03-14T03:23:56;100639.99;;;3.86;53.01
42067;BME280;27734;47.028;28.820;2023-03-14T03:26:28;100642.69;;;3.88;52.66
42067;BME280;27734;47.028;28.820;2023-03-14T03:28:59;100637.69;;;3.91;52.57
42067;BME280;27734;47.028;28.820;2023-03-14T03:31:31;100639.50;;;3.92;52.62
42067;BME280;27734;47.028;28.820;2023-03-14T03:34:02;100640.48;;;3.94;52.51
42067;BME280;27734;47.028;28.820;2023-03-14T03:36:33;100636.31;;;3.96;51.81
42067;BME280;27734;47.028;28.820;2023-03-14T03:39:05;100642.59;;;4.00;51.82
42067;BME280;27734;47.028;28.820;2023-03-14T03:41:36;100639.20;;;4.01;52.38
42067;BME280;27734;47.028;28.820;2023-03-14T03:44:07;100637.59;;;4.03;51.47
42067;BME280;27734;47.028;28.820;2023-03-14T03:46:39;100646.27;;;4.03;52.38
42067;BME280;27734;47.028;28.820;2023-03-14T03:49:11;100634.21;;;4.04;51.75
42067;BME280;27734;47.028;28.820;2023-03-14T03:51:42;100630.79;;;4.05;51.32
42067;BME280;27734;47.028;28.820;2023-03-14T03:54:14;100638.58;;;4.05;51.30
42067;BME280;27734;47.028;28.820;2023-03-14T03:56:45;100641.08;;;4.03;52.46
42067;BME280;27734;47.028;28.820;2023-03-14T03:59:17;100643.58;;;4.02;51.75
42067;BME280;27734;47.028;28.820;2023-03-14T04:01:49;100640.00;;;4.00;51.14
42067;BME280;27734;47.028;28.820;2023-03-14T04:04:20;100633.81;;;3.98;51.75
42067;BME280;27734;47.028;28.820;2023-03-14T04:06:51;100641.61;;;3.98;50.82
42067;BME280;27734;47.028;28.820;2023-03-14T04:09:22;100642.59;;;4.00;51.36
42067;BME280;27734;47.028;28.820;2023-03-14T04:12:22;100642.59;;;4.00;51.07
42067;BME280;27734;47.028;28.820;2023-03-14T04:15:01;100640.09;;;4.01;51.12
42067;BME280;27734;47.028;28.820;2023-03-14T04:17:34;100641.91;;;4.02;51.09
42067;BME280;27734;47.028;28.820;2023-03-14T04:20:09;100648.08;;;4.04;50.47
42067;BME280;27734;47.028;28.820;2023-03-14T04:22:41;100634.21;;;4.04;50.99
42067;BME280;27734;47.028;28.820;2023-03-14T04:25:13;100642.79;;;4.03;51.09
42067;BME280;27734;47.028;28.820;2023-03-14T04:27:49;100643.58;;;4.02;50.81
42067;BME280;27734;47.028;28.820;2023-03-14T04:30:25;100637.40;;;4.00;51.22
42067;BME280;27734;47.028;28.820;2023-03-14T04:33:00;100639.89;;;3.98;51.00
42067;BME280;27734;47.028;28.820;2023-03-14T04:35:34;100635.49;;;3.97;50.92
42067;BME280;27734;47.028;28.820;2023-03-14T04:38:10;100644.10;;;3.96;51.62
42067;BME280;27734;47.028;28.820;2023-03-14T04:40:44;100638.81;;;3.94;50.97
42067;BME280;27734;47.028;28.820;2023-03-14T04:43:16;100625.73;;;3.93;50.49
42067;BME280;27734;47.028;28.820;2023-03-14T04:45:52;100631.02;;;3.94;51.08
42067;BME280;27734;47.028;28.820;2023-03-14T04:48:24;100624.12;;;3.95;51.45
42067;BME280;27734;47.028;28.820;2023-03-14T04:50:56;100633.72;;;3.96;51.95
42067;BME280;27734;47.028;28.820;2023-03-14T04:53:28;100619.91;;;3.97;51.28
42067;BME280;27734;47.028;28.820;2023-03-14T04:56:00;100625.20;;;3.99;51.03
42067;BME280;27734;47.028;28.820;2023-03-14T04:58:38;100618.53;;;4.02;51.19
42067;BME280;27734;47.028;28.820;2023-03-14T05:01:10;100617.80;;;4.05;51.25
42067;BME280;27734;47.028;28.820;2023-03-14T05:04:04;100619.91;;;4.10;51.53
42067;BME280;27734;47.028;28.820;2023-03-14T05:06:51;100621.91;;;4.14;51.14
42067;BME280;27734;47.028;28.820;2023-03-14T05:09:45;100621.47;;;4.22;51.22
42067;BME280;27734;47.028;28.820;2023-03-14T05:12:36;100628.77;;;4.27;51.40
42067;BME280;27734;47.028;28.820;2023-03-14T05:15:25;100633.42;;;4.33;51.27
42067;BME280;27734;47.028;28.820;2023-03-14T05:18:16;100640.91;;;4.42;51.05
42067;BME280;27734;47.028;28.820;2023-03-14T05:20:59;100644.69;;;4.47;50.99
42067;BME280;27734;47.028;28.820;2023-03-14T05:23:50;100640.89;;;4.55;51.05
42067;BME280;27734;47.028;28.820;2023-03-14T05:26:50;100636.95;;;4.62;51.22
42067;BME280;27734;47.028;28.820;2023-03-14T05:29:37;100641.74;;;4.69;50.51
42067;BME280;27734;47.028;28.820;2023-03-14T05:32:27;100637.91;;;4.77;50.63
42067;BME280;27734;47.028;28.820;2023-03-14T05:35:17;100634.94;;;4.86;50.60
42067;BME280;27734;47.028;28.820;2023-03-14T05:38:09;100644.03;;;4.93;50.73
42067;BME280;27734;47.028;28.820;2023-03-14T05:40:51;100634.80;;;4.98;50.70
42067;BME280;27734;47.028;28.820;2023-03-14T05:43:41;100639.85;;;5.10;50.83
42067;BME280;27734;47.028;28.820;2023-03-14T05:46:39;100633.39;;;5.18;51.33
42067;BME280;27734;47.028;28.820;2023-03-14T05:49:27;100632.97;;;5.25;51.30
42067;BME280;27734;47.028;28.820;2023-03-14T05:52:25;100640.75;;;5.40;51.14
42067;BME280;27734;47.028;28.820;2023-03-14T05:55:13;100635.20;;;5.49;51.30
42067;BME280;27734;47.028;28.820;2023-03-14T05:58:07;100628.81;;;5.58;50.36
42067;BME280;27734;47.028;28.820;2023-03-14T06:00:57;100625.77;;;5.66;50.98
42067;BME280;27734;47.028;28.820;2023-03-14T06:03:42;100621.89;;;5.74;50.73
42067;BME280;27734;47.028;28.820;2023-03-14T06:06:13;100620.60;;;5.82;50.67
42067;BME280;27734;47.028;28.820;2023-03-14T06:08:46;100614.94;;;5.89;49.83
42067;BME280;27734;47.028;28.820;2023-03-14T06:11:18;100615.50;;;5.99;50.68
42067;BME280;27734;47.028;28.820;2023-03-14T06:13:50;100607.19;;;6.06;50.57
42067;BME280;27734;47.028;28.820;2023-03-14T06:16:21;100613.91;;;6.17;50.73
42067;BME280;27734;47.028;28.820;2023-03-14T06:18:56;100617.03;;;6.26;50.28
42067;BME280;27734;47.028;28.820;2023-03-14T06:21:28;100607.07;;;6.36;50.41
42067;BME280;27734;47.028;28.820;2023-03-14T06:24:00;100611.17;;;6.47;50.08
42067;BME280;27734;47.028;28.820;2023-03-14T06:26:33;100609.87;;;6.55;50.00
42067;BME280;27734;47.028;28.820;2023-03-14T06:29:04;100610.52;;;6.68;49.83
42067;BME280;27734;47.028;28.820;2023-03-14T06:31:38;100598.05;;;6.78;49.37
42067;BME280;27734;47.028;28.820;2023-03-14T06:34:10;100605.45;;;6.87;49.86
42067;BME280;27734;47.028;28.820;2023-03-14T06:36:42;100606.00;;;6.98;49.85
42067;BME280;27734;47.028;28.820;2023-03-14T06:39:18;100598.89;;;7.12;49.82
42067;BME280;27734;47.028;28.820;2023-03-14T06:41:50;100604.81;;;7.26;49.56
42067;BME280;27734;47.028;28.820;2023-03-14T06:44:22;100605.59;;;7.41;49.41
42067;BME280;27734;47.028;28.820;2023-03-14T06:46:53;100597.33;;;7.50;48.63
42067;BME280;27734;47.028;28.820;2023-03-14T06:49:25;100590.10;;;7.62;47.59
42067;BME280;27734;47.028;28.820;2023-03-14T06:51:58;100582.86;;;7.74;48.28
42067;BME280;27734;47.028;28.820;2023-03-14T06:54:30;100579.85;;;7.85;48.02
42067;BME280;27734;47.028;28.820;2023-03-14T06:57:02;100583.94;;;7.98;47.87
42067;BME280;27734;47.028;28.820;2023-03-14T06:59:37;100575.86;;;8.11;48.04
42067;BME280;27734;47.028;28.820;2023-03-14T07:02:11;100572.23;;;8.27;47.43
42067;BME280;27734;47.028;28.820;2023-03-14T07:04:43;100582.62;;;8.43;47.39
42067;BME280;27734;47.028;28.820;2023-03-14T07:07:18;100569.18;;;8.55;46.72
42067;BME280;27734;47.028;28.820;2023-03-14T07:09:49;100569.80;;;8.69;45.88
42067;BME280;27734;47.028;28.820;2023-03-14T07:12:23;100570.48;;;8.85;46.67
42067;BME280;27734;47.028;28.820;2023-03-14T07:14:54;100568.39;;;8.97;46.19
42067;BME280;27734;47.028;28.820;2023-03-14T07:17:33;100560.94;;;9.06;45.44
42067;BME280;27734;47.028;28.820;2023-03-14T07:20:11;100567.45;;;9.16;45.41
42067;BME280;27734;47.028;28.820;2023-03-14T07:22:43;100560.91;;;9.26;45.29
42067;BME280;27734;47.028;28.820;2023-03-14T07:25:15;100561.22;;;9.33;44.22
42067;BME280;27734;47.028;28.820;2023-03-14T07:27:53;100552.83;;;9.42;43.86
42067;BME280;27734;47.028;28.820;2023-03-14T07:30:28;100543.80;;;9.57;43.22
42067;BME280;27734;47.028;28.820;2023-03-14T07:33:01;100547.83;;;9.69;43.52
42067;BME280;27734;47.028;28.820;2023-03-14T07:35:37;100543.20;;;9.85;43.74
42067;BME280;27734;47.028;28.820;2023-03-14T07:38:08;100539.97;;;9.92;41.51
42067;BME280;27734;47.028;28.820;2023-03-14T07:40:46;100532.46;;;10.01;40.33
42067;BME280;27734;47.028;28.820;2023-03-14T07:43:27;100549.48;;;10.13;39.28
42067;BME280;27734;47.028;28.820;2023-03-14T07:46:04;100544.53;;;10.20;40.09
42067;BME280;27734;47.028;28.820;2023-03-14T07:48:41;100531.71;;;10.28;39.89
42067;BME280;27734;47.028;28.820;2023-03-14T07:51:27;100523.95;;;10.31;38.94
42067;BME280;27734;47.028;28.820;2023-03-14T07:54:04;100538.25;;;10.38;38.63
42067;BME280;27734;47.028;28.820;2023-03-14T08:00:08;100513.02;;;10.41;32.47
42067;BME280;27734;47.028;28.820;2023-03-14T08:06:33;100521.77;;;10.66;33.13
42067;BME280;27734;47.028;28.820;2023-03-14T08:09:06;100527.41;;;10.77;34.77
42067;BME280;27734;47.028;28.820;2023-03-14T08:11:37;100522.42;;;10.85;33.74
42067;BME280;27734;47.028;28.820;2023-03-14T08:14:10;100520.07;;;10.92;34.67
42067;BME280;27734;47.028;28.820;2023-03-14T08:16:43;100521.16;;;10.99;32.96
42067;BME280;27734;47.028;28.820;2023-03-14T08:19:15;100506.55;;;11.07;32.76
42067;BME280;27734;47.028;28.820;2023-03-14T08:22:01;100508.61;;;11.16;33.14
42067;BME280;27734;47.028;28.820;2023-03-14T08:24:34;100496.77;;;11.29;32.72
42067;BME280;27734;47.028;28.820;2023-03-14T08:27:07;100501.39;;;11.36;30.35
42067;BME280;27734;47.028;28.820;2023-03-14T08:29:38;100485.05;;;11.46;31.55
42067;BME280;27734;47.028;28.820;2023-03-14T08:32:11;100477.47;;;11.56;31.48
42067;BME280;27734;47.028;28.820;2023-03-14T08:34:45;100486.56;;;11.67;33.70
42067;BME280;27734;47.028;28.820;2023-03-14T08:37:17;100477.25;;;11.77;30.84
42067;BME280;27734;47.028;28.820;2023-03-14T08:39:49;100476.70;;;11.88;32.67
42067;BME280;27734;47.028;28.820;2023-03-14T08:42:21;100479.73;;;12.01;32.84
42067;BME280;27734;47.028;28.820;2023-03-14T08:44:57;100478.48;;;12.18;32.88
42067;BME280;27734;47.028;28.820;2023-03-14T08:47:29;100478.66;;;12.25;32.10
42067;BME280;27734;47.028;28.820;2023-03-14T08:50:01;100456.02;;;12.30;32.17
42067;BME280;27734;47.028;28.820;2023-03-14T08:52:34;100458.91;;;12.39;31.27
42067;BME280;27734;47.028;28.820;2023-03-14T08:55:11;100465.27;;;12.47;31.86
42067;BME280;27734;47.028;28.820;2023-03-14T08:57:42;100457.66;;;12.58;32.03
42067;BME280;27734;47.028;28.820;2023-03-14T09:00:16;100458.55;;;12.58;28.45
42067;BME280;27734;47.028;28.820;2023-03-14T09:02:48;100445.55;;;12.65;27.58
42067;BME280;27734;47.028;28.820;2023-03-14T09:05:26;100413.72;;;12.55;27.11
42067;BME280;27734;47.028;28.820;2023-03-14T09:07:59;100443.92;;;12.70;30.04
42067;BME280;27734;47.028;28.820;2023-03-14T09:10:32;100438.84;;;12.77;30.24
42067;BME280;27734;47.028;28.820;2023-03-14T09:13:04;100436.49;;;12.88;30.10
42067;BME280;27734;47.028;28.820;2023-03-14T09:15:35;100440.31;;;13.00;30.25
42067;BME280;27734;47.028;28.820;2023-03-14T09:18:07;100432.67;;;13.10;28.90
42067;BME280;27734;47.028;28.820;2023-03-14T09:20:38;100436.34;;;13.17;29.07
42067;BME280;27734;47.028;28.820;2023-03-14T09:23:11;100431.91;;;13.16;28.84
42067;BME280;27734;47.028;28.820;2023-03-14T09:25:43;100411.82;;;13.21;27.73
42067;BME280;27734;47.028;28.820;2023-03-14T09:28:15;100409.61;;;13.38;29.25
42067;BME280;27734;47.028;28.820;2023-03-14T09:30:46;100410.70;;;13.46;29.13
42067;BME280;27734;47.028;28.820;2023-03-14T09:33:20;100382.66;;;13.50;27.96
42067;BME280;27734;47.028;28.820;2023-03-14T09:35:52;100415.38;;;13.60;28.78
42067;BME280;27734;47.028;28.820;2023-03-14T09:38:28;100412.12;;;13.72;29.59
42067;BME280;27734;47.028;28.820;2023-03-14T09:41:10;100385.75;;;13.72;27.28
42067;BME280;27734;47.028;28.820;2023-03-14T09:43:45;100397.47;;;13.86;27.63
42067;BME280;27734;47.028;28.820;2023-03-14T09:46:18;100388.80;;;13.92;27.30
42067;BME280;27734;47.028;28.820;2023-03-14T09:48:50;100383.75;;;14.02;26.56
42067;BME280;27734;47.028;28.820;2023-03-14T09:51:22;100383.02;;;14.11;28.29
42067;BME280;27734;47.028;28.820;2023-03-14T09:54:02;100393.84;;;14.25;26.73
42067;BME280;27734;47.028;28.820;2023-03-14T09:56:39;100387.72;;;14.26;25.54
42067;BME280;27734;47.028;28.820;2023-03-14T09:59:13;100372.90;;;14.34;26.91
42067;BME280;27734;47.028;28.820;2023-03-14T10:01:46;100389.70;;;14.39;25.31
42067;BME280;27734;47.028;28.820;2023-03-14T10:04:23;100376.53;;;14.41;26.42
42067;BME280;27734;47.028;28.820;2023-03-14T10:06:57;100387.06;;;14.39;27.37
42067;BME280;27734;47.028;28.820;2023-03-14T10:09:32;100379.09;;;14.36;27.32
42067;BME280;27734;47.028;28.820;2023-03-14T10:12:09;100363.84;;;14.20;25.29
42067;BME280;27734;47.028;28.820;2023-03-14T10:14:48;100369.80;;;14.10;26.79
42067;BME280;27734;47.028;28.820;2023-03-14T10:17:20;100366.06;;;13.98;26.88
42067;BME280;27734;47.028;28.820;2023-03-14T10:19:57;100356.21;;;13.90;26.76
42067;BME280;27734;47.028;28.820;2023-03-14T10:22:29;100353.36;;;13.79;25.29
42067;BME280;27734;47.028;28.820;2023-03-14T10:25:06;100354.17;;;13.75;27.19
42067;BME280;27734;47.028;28.820;2023-03-14T10:27:42;100340.02;;;13.71;26.20
42067;BME280;27734;47.028;28.820;2023-03-14T10:30:35;100311.73;;;13.62;26.30
42067;BME280;27734;47.028;28.820;2023-03-14T10:33:24;100327.48;;;13.59;27.43
42067;BME280;27734;47.028;28.820;2023-03-14T10:35:57;100308.06;;;13.54;26.21
42067;BME280;27734;47.028;28.820;2023-03-14T10:38:34;100323.88;;;13.54;26.83
42067;BME280;27734;47.028;28.820;2023-03-14T10:41:19;100315.94;;;13.53;26.78
42067;BME280;27734;47.028;28.820;2023-03-14T10:44:11;100317.77;;;13.57;27.49
42067;BME280;27734;47.028;28.820;2023-03-14T10:47:02;100316.07;;;13.59;27.51
42067;BME280;27734;47.028;28.820;2023-03-14T10:49:42;100297.67;;;13.62;27.48
42067;BME280;27734;47.028;28.820;2023-03-14T10:52:28;100298.62;;;13.65;27.22
42067;BME280;27734;47.028;28.820;2023-03-14T10:55:11;100288.86;;;13.61;27.77
42067;BME280;27734;47.028;28.820;2023-03-14T10:57:46;100274.13;;;13.73;26.56
42067;BME280;27734;47.028;28.820;2023-03-14T11:00:20;100277.05;;;13.88;27.82
42067;BME280;27734;47.028;28.820;2023-03-14T11:03:10;100263.33;;;14.06;26.96
42067;BME280;27734;47.028;28.820;2023-03-14T11:05:51;100263.41;;;14.11;26.15
42067;BME280;27734;47.028;28.820;2023-03-14T11:08:39;100248.59;;;14.19;27.70
42067;BME280;27734;47.028;28.820;2023-03-14T11:11:18;100237.31;;;14.28;27.60
42067;BME280;27734;47.028;28.820;2023-03-14T11:14:00;100235.72;;;14.39;26.43
42067;BME280;27734;47.028;28.820;2023-03-14T11:16:47;100234.05;;;14.46;27.58
42067;BME280;27734;47.028;28.820;2023-03-14T11:22:35;100216.00;;;14.72;27.24
42067;BME280;27734;47.028;28.820;2023-03-14T11:25:29;100197.41;;;14.64;25.61
42067;BME280;27734;47.028;28.820;2023-03-14T11:28:14;100204.47;;;14.65;26.63
42067;BME280;27734;47.028;28.820;2023-03-14T11:30:53;100206.23;;;14.65;26.88
42067;BME280;27734;47.028;28.820;2023-03-14T11:33:27;100194.78;;;14.66;26.63
42067;BME280;27734;47.028;28.820;2023-03-14T11:36:06;100187.70;;;14.62;26.30
42067;BME280;27734;47.028;28.820;2023-03-14T11:38:46;100179.78;;;14.62;26.11
42067;BME280;27734;47.028;28.820;2023-03-14T11:41:25;100178.88;;;14.61;26.55
42067;BME280;27734;47.028;28.820;2023-03-14T11:44:08;100171.72;;;14.54;26.09
42067;BME280;27734;47.028;28.820;2023-03-14T11:46:54;100168.08;;;14.47;26.43
42067;BME280;27734;47.028;28.820;2023-03-14T11:49:36;100158.54;;;14.55;26.23
42067;BME280;27734;47.028;28.820;2023-03-14T11:52:15;100145.32;;;14.54;26.02
42067;BME280;27734;47.028;28.820;2023-03-14T11:54:56;100146.98;;;14.49;25.60
42067;BME280;27734;47.028;28.820;2023-03-14T11:57:32;100155.79;;;14.48;26.23
42067;BME280;27734;47.028;28.820;2023-03-14T12:00:12;100147.84;;;14.46;26.41
42067;BME280;27734;47.028;28.820;2023-03-14T12:02:50;100141.66;;;14.46;26.29
42067;BME280;27734;47.028;28.820;2023-03-14T12:05:46;100135.35;;;14.34;25.53
42067;BME280;27734;47.028;28.820;2023-03-14T12:08:46;100123.92;;;14.34;26.01
42067;BME280;27734;47.028;28.820;2023-03-14T12:11:30;100135.26;;;14.28;24.23
42067;BME280;27734;47.028;28.820;2023-03-14T12:14:19;100122.11;;;14.31;25.18
42067;BME280;27734;47.028;28.820;2023-03-14T12:16:54;100131.81;;;14.32;24.96
42067;BME280;27734;47.028;28.820;2023-03-14T12:19:49;100130.97;;;14.36;25.36
42067;BME280;27734;47.028;28.820;2023-03-14T12:22:45;100112.53;;;14.39;24.56
42067;BME280;27734;47.028;28.820;2023-03-14T12:25:22;100107.30;;;14.43;25.29
42067;BME280;27734;47.028;28.820;2023-03-14T12:28:18;100119.67;;;14.45;26.24
42067;BME280;27734;47.028;28.820;2023-03-14T12:30:50;100087.97;;;14.44;25.29
42067;BME280;27734;47.028;28.820;2023-03-14T12:33:35;100118.72;;;14.40;25.14
42067;BME280;27734;47.028;28.820;2023-03-14T12:36:30;100106.36;;;14.37;25.29
42067;BME280;27734;47.028;28.820;2023-03-14T12:39:24;100102.83;;;14.35;25.21
42067;BME280;27734;47.028;28.820;2023-03-14T12:42:07;100091.30;;;14.30;25.67
42067;BME280;27734;47.028;28.820;2023-03-14T12:44:45;100086.88;;;14.28;24.67
42067;BME280;27734;47.028;28.820;2023-03-14T12:47:53;100100.05;;;14.26;25.28
42067;BME280;27734;47.028;28.820;2023-03-14T12:50:33;100094.73;;;14.23;24.86
42067;BME280;27734;47.028;28.820;2023-03-14T12:53:30;100085.91;;;14.21;25.25
42067;BME280;27734;47.028;28.820;2023-03-14T12:56:17;100089.41;;;14.20;25.56
42067;BME280;27734;47.028;28.820;2023-03-14T12:58:58;100086.75;;;14.18;25.58
42067;BME280;27734;47.028;28.820;2023-03-14T13:01:35;100086.68;;;14.14;25.31
42067;BME280;27734;47.028;28.820;2023-03-14T13:04:10;100079.58;;;14.10;25.34
42067;BME280;27734;47.028;28.820;2023-03-14T13:07:01;100076.02;;;14.06;25.09
42067;BME280;27734;47.028;28.820;2023-03-14T13:09:52;100075.02;;;13.98;24.75
42067;BME280;27734;47.028;28.820;2023-03-14T13:12:29;100064.36;;;13.90;24.29
42067;BME280;27734;47.028;28.820;2023-03-14T13:15:18;100066.99;;;13.90;24.83
42067;BME280;27734;47.028;28.820;2023-03-14T13:18:09;100053.71;;;13.84;24.60
42067;BME280;27734;47.028;28.820;2023-03-14T13:20:51;100058.08;;;13.83;24.75
42067;BME280;27734;47.028;28.820;2023-03-14T13:23:26;100062.48;;;13.83;24.36
42067;BME280;27734;47.028;28.820;2023-03-14T13:25:59;100051.92;;;13.83;24.53
42067;BME280;27734;47.028;28.820;2023-03-14T13:28:32;100028.13;;;13.78;24.15
42067;BME280;27734;47.028;28.820;2023-03-14T13:31:04;100029.84;;;13.75;23.16
42067;BME280;27734;47.028;28.820;2023-03-14T13:33:38;100026.27;;;13.73;24.10
42067;BME280;27734;47.028;28.820;2023-03-14T13:36:13;100027.20;;;13.75;24.49
42067;BME280;27734;47.028;28.820;2023-03-14T13:38:59;100021.91;;;13.73;23.93
42067;BME280;27734;47.028;28.820;2023-03-14T13:41:36;100012.16;;;13.69;23.36
42067;BME280;27734;47.028;28.820;2023-03-14T13:44:16;100016.53;;;13.67;23.91
42067;BME280;27734;47.028;28.820;2023-03-14T13:46:50;100008.60;;;13.65;24.22